ADDS METAR Data INFO
IDs: Format: Raw Decoded Include TAF

Data at: 1017 UTC 12 Dec 2017

KMCK 120953Z AUTO 27007KT 10SM CLR M06/M08 A3039 RMK AO2 SLP310 T10561078
KMCK 120853Z AUTO 28009KT 10SM CLR M05/M08 A3041 RMK AO2 SLP315 T10501078 56005
KMCK 120753Z AUTO 28011KT 10SM CLR M05/M07 A3041 RMK AO2 SLP314 T10501072
KMCK 120653Z AUTO 29011KT 10SM CLR M04/M07 A3042 RMK AO2 SLP313 T10391067
KMCK 120553Z AUTO 29008KT 10SM CLR M03/M06 A3043 RMK AO2 SLP316 T10281061 10083 21033 401391033 53010
KMCK 120453Z AUTO 29009KT 10SM CLR M02/M06 A3041 RMK AO2 SLP314 T10221056
KMCK 120353Z AUTO 31010KT 10SM CLR M01/M06 A3040 RMK AO2 SLP310 T10111056
KMCK 120253Z AUTO 31008KT 10SM CLR M01/M06 A3039 RMK AO2 SLP311 T10111056 51025
KMCK 120153Z AUTO 35006KT 10SM CLR 01/M05 A3038 RMK AO2 SLP307 T00061050
KMCK 120053Z AUTO 35010KT 10SM CLR 04/M04 A3035 RMK AO2 PK WND 36029/2356 SLP292 T00441039
KMCK 112353Z AUTO 36023G31KT 10SM CLR 08/M04 A3031 RMK AO2 PK WND 35031/2352 SLP277 T00831044 10139 20083 53025
KMCK 112253Z AUTO 34015G25KT 10SM CLR 09/M04 A3028 RMK AO2 PK WND 34039/2218 SLP263 T00891044
KMCK 112153Z AUTO 34023G35KT 10SM CLR 11/M05 A3025 RMK AO2 PK WND 35041/2056 SLP255 T01061050
KMCK 112053Z AUTO 35028G38KT 10SM CLR 11/M07 A3023 RMK AO2 PK WND 34038/2051 SLP246 T01111072 53011
KMCK 111953Z AUTO 33026G42KT 10SM CLR 13/M11 A3020 RMK AO2 PK WND 33047/1921 SLP233 T01281106
KMCK 111853Z AUTO 34032G41KT 10SM CLR 13/M12 A3019 RMK AO2 PK WND 35045/1825 SLP230 T01331122
KMCK 111753Z AUTO 33028G37KT 10SM CLR 13/M10 A3020 RMK AO2 PK WND 33037/1750 SLP234 T01331100 10133 20028 58001
KMCK 111653Z AUTO 30015G23KT 10SM CLR 10/M09 A3021 RMK AO2 SLP243 T01001094
KMCK 111553Z AUTO 29012KT 10SM CLR 07/M10 A3022 RMK AO2 SLP243 T00721100
KMCK 111453Z AUTO 29013KT 10SM CLR 06/M11 A3020 RMK AO2 SLP241 T00561106 51006
KMCK 111353Z AUTO 28012KT 10SM CLR 04/M11 A3019 RMK AO2 SLP238 T00391106
KMCK 111253Z AUTO 29013KT 10SM CLR 04/M11 A3020 RMK AO2 SLP234 T00391106
KMCK 111153Z AUTO 30012KT 10SM CLR 03/M12 A3018 RMK AO2 SLP227 T00281117 10044 21022 55000
KMCK 111053Z AUTO 29014KT 10SM CLR 04/M12 A3016 RMK AO2 SLP215 T00441122
KMCK 110953Z AUTO 30011KT 10SM CLR 02/M12 A3017 RMK AO2 SLP220 T00171117
KMCK 110853Z AUTO 28015KT 10SM CLR 02/M12 A3018 RMK AO2 SLP221 T00221122 55005
KMCK 110753Z AUTO 27014KT 10SM CLR 02/M12 A3018 RMK AO2 SLP221 T00171117
KMCK 110653Z AUTO 28010KT 10SM CLR 01/M12 A3018 RMK AO2 SLP225 T00111122
KMCK 110553Z AUTO 27009KT 10SM CLR 00/M13 A3020 RMK AO2 SLP233 T00001128 10122 21011 401831011 56000
KMCK 110453Z AUTO 26010KT 10SM CLR 00/M12 A3020 RMK AO2 SLP235 T00001122
KMCK 110353Z AUTO 25006KT 10SM CLR 03/M13 A3019 RMK AO2 SLP238 T00331128
KMCK 110253Z AUTO 25011KT 10SM CLR 02/M12 A3020 RMK AO2 SLP243 T00171122 56006
KMCK 110153Z AUTO 26009KT 10SM CLR 04/M13 A3020 RMK AO2 SLP242 T00441128
KMCK 110053Z AUTO 26007KT 10SM CLR 09/M13 A3020 RMK AO2 SLP240 T00891128
KMCK 102353Z AUTO 23006KT 10SM CLR 12/M13 A3022 RMK AO2 SLP240 T01221128 10183 20117 55002
KMCK 102253Z AUTO 29006KT 10SM CLR 14/M13 A3021 RMK AO2 SLP236 T01391128